Time;durP1;ratioP1;P1;durP2;ratioP2;P2;SDS_P1;SDS_P2;PMS_P1;PMS_P2;Temp;Humidity;BMP_temperature;BMP_pressure;BME280_temperature;BME280_humidity;BME280_pressure;Samples;Min_cycle;Max_cycle;Signal;HPM_P1;HPM_P2
2023/06/07 00:03:37;;;;;;;4.20;1.60;;;14.50;99.90;;;;;;1943539;72;27622;-86
2023/06/07 00:06:28;;;;;;;3.73;1.60;;;14.50;99.90;;;;;;1928097;73;25245;-86
2023/06/07 00:09:17;;;;;;;4.60;1.70;;;14.40;99.90;;;;;;1933489;73;25251;-86
2023/06/07 00:14:48;;;;;;;4.50;1.60;;;14.30;99.90;;;;;;1931904;72;27142;-86
2023/06/07 00:17:40;;;;;;;2.43;1.60;;;14.20;99.90;;;;;;1908183;73;25267;-86
2023/06/07 00:20:28;;;;;;;2.60;1.70;;;14.20;99.90;;;;;;1863383;75;25724;-86
2023/06/07 00:23:18;;;;;;;2.97;1.80;;;14.10;99.90;;;;;;1849981;76;25322;-87
2023/06/07 00:26:07;;;;;;;3.10;1.60;;;14.00;99.90;;;;;;1836035;76;25917;-86
2023/06/07 00:28:56;;;;;;;7.57;1.80;;;14.00;99.90;;;;;;1835307;76;25705;-86
2023/06/07 00:34:32;;;;;;;3.60;1.60;;;13.90;99.90;;;;;;1952421;72;26894;-86
2023/06/07 00:37:20;;;;;;;7.73;1.87;;;13.80;99.90;;;;;;1940217;73;25250;-86
2023/06/07 00:40:11;;;;;;;5.30;1.87;;;13.60;99.90;;;;;;1927195;73;25750;-86
2023/06/07 00:45:47;;;;;;;4.90;1.70;;;13.40;99.90;;;;;;1941253;72;27094;-86
2023/06/07 00:48:36;;;;;;;6.87;1.93;;;13.20;99.90;;;;;;1925515;73;25169;-86
2023/06/07 00:51:24;;;;;;;11.93;1.97;;;13.20;99.90;;;;;;1920071;73;25287;-87
2023/06/07 00:54:17;;;;;;;2.53;1.67;;;13.10;99.90;;;;;;1921564;73;25317;-86
2023/06/07 00:57:05;;;;;;;4.10;1.77;;;13.00;99.90;;;;;;1934018;73;25313;-86
2023/06/07 01:02:41;;;;;;;7.17;2.00;;;12.80;99.90;;;;;;1956599;72;26873;-86
2023/06/07 01:05:31;;;;;;;3.33;2.20;;;12.70;99.90;;;;;;1926123;72;25321;-86
2023/06/07 01:08:21;;;;;;;3.57;2.03;;;12.50;99.90;;;;;;1926574;72;25306;-86
2023/06/07 01:11:13;;;;;;;1.97;1.63;;;12.40;99.90;;;;;;1929523;72;25763;-86
2023/06/07 01:14:02;;;;;;;4.80;1.97;;;12.30;99.90;;;;;;1934129;73;25262;-86
2023/06/07 01:19:51;;;;;;;5.13;2.00;;;12.10;99.90;;;;;;1941469;72;27045;-85
2023/06/07 01:25:16;;;;;;;4.90;2.00;;;11.90;99.90;;;;;;1938098;72;27568;-86
2023/06/07 01:30:49;;;;;;;4.63;2.10;;;11.60;99.90;;;;;;1931516;72;27000;-85
2023/06/07 01:33:39;;;;;;;3.97;1.90;;;11.50;99.90;;;;;;1912655;73;25237;-86
2023/06/07 01:36:30;;;;;;;5.73;1.87;;;11.40;99.90;;;;;;1909560;73;25205;-86
2023/06/07 01:39:20;;;;;;;5.83;2.20;;;11.30;99.90;;;;;;1863998;76;25255;-86
2023/06/07 01:44:55;;;;;;;2.17;1.87;;;11.10;99.90;;;;;;1942058;72;27108;-85
2023/06/07 01:47:44;;;;;;;3.53;1.73;;;11.10;99.90;;;;;;1943356;73;25710;-85
2023/06/07 01:50:33;;;;;;;3.80;2.13;;;11.10;99.90;;;;;;1939285;72;25225;-85
2023/06/07 01:53:22;;;;;;;4.40;2.20;;;11.00;99.90;;;;;;1928850;73;25195;-85
2023/06/07 01:56:15;;;;;;;4.00;2.00;;;11.00;99.90;;;;;;1883034;74;25168;-85
2023/06/07 01:59:07;;;;;;;3.80;2.33;;;10.90;99.90;;;;;;1940817;73;25154;-85
2023/06/07 02:02:00;;;;;;;3.33;1.93;;;10.80;99.90;;;;;;1945897;73;25202;-87
2023/06/07 02:04:52;;;;;;;5.23;2.03;;;10.60;99.90;;;;;;1947675;72;25490;-86
2023/06/07 02:07:44;;;;;;;3.70;2.10;;;10.40;99.90;;;;;;1952891;73;25187;-86
2023/06/07 02:10:35;;;;;;;15.37;2.67;;;10.40;99.90;;;;;;1934878;73;25288;-86
2023/06/07 02:13:24;;;;;;;3.17;1.80;;;10.40;99.90;;;;;;1945393;72;25294;-86
2023/06/07 02:16:13;;;;;;;9.37;2.40;;;10.40;99.90;;;;;;1945749;73;25654;-86
2023/06/07 02:19:06;;;;;;;6.53;2.13;;;10.30;99.90;;;;;;1944900;73;25663;-86
2023/06/07 02:21:55;;;;;;;4.30;1.80;;;10.30;99.90;;;;;;1944303;73;25143;-86
2023/06/07 02:24:44;;;;;;;4.40;2.37;;;10.30;99.90;;;;;;1950615;73;25169;-86
2023/06/07 02:27:33;;;;;;;5.47;2.30;;;10.20;99.90;;;;;;1936144;72;25279;-86
2023/06/07 02:30:21;;;;;;;6.83;2.23;;;10.20;99.90;;;;;;1947068;73;25147;-86
2023/06/07 02:35:51;;;;;;;3.93;1.90;;;10.20;99.90;;;;;;1928051;72;27509;-85
2023/06/07 02:38:39;;;;;;;10.47;1.90;;;10.20;99.90;;;;;;1894050;73;25236;-86
2023/06/07 02:41:27;;;;;;;5.13;1.97;;;10.30;99.90;;;;;;1853531;76;25266;-86
2023/06/07 02:44:16;;;;;;;3.23;2.00;;;10.40;99.90;;;;;;1814775;77;25298;-85
2023/06/07 02:47:06;;;;;;;3.87;1.80;;;10.50;99.90;;;;;;1847126;76;25214;-85
2023/06/07 02:49:55;;;;;;;3.53;1.63;;;10.60;99.90;;;;;;1791494;79;25349;-86
2023/06/07 02:52:46;;;;;;;4.77;1.77;;;10.60;99.90;;;;;;1834349;76;25740;-86
2023/06/07 02:55:34;;;;;;;4.40;2.13;;;10.70;99.90;;;;;;1810912;78;25284;-85
2023/06/07 03:01:07;;;;;;;11.07;2.07;;;10.90;99.90;;;;;;1928590;72;27066;-86
2023/06/07 03:06:41;;;;;;;5.07;1.93;;;11.10;99.90;;;;;;1944418;72;27131;-85
2023/06/07 03:09:27;;;;;;;4.53;1.97;;;11.30;99.90;;;;;;1930935;73;25709;-86
2023/06/07 03:12:16;;;;;;;9.77;1.90;;;11.40;99.90;;;;;;1927348;73;25643;-86
2023/06/07 03:15:07;;;;;;;5.37;1.73;;;11.60;99.90;;;;;;1932740;73;25265;-86
2023/06/07 03:17:56;;;;;;;2.13;1.57;;;11.80;99.90;;;;;;1921602;73;25178;-86
2023/06/07 03:20:47;;;;;;;3.07;1.77;;;12.20;99.90;;;;;;1920603;73;25264;-86
2023/06/07 03:23:36;;;;;;;2.97;1.80;;;12.70;99.90;;;;;;1935804;73;25241;-85
2023/06/07 03:26:25;;;;;;;5.10;1.77;;;13.10;99.90;;;;;;1929588;73;25749;-85
2023/06/07 03:29:14;;;;;;;7.37;1.60;;;13.40;99.90;;;;;;1927320;73;25263;-85
2023/06/07 03:32:05;;;;;;;5.90;1.50;;;13.70;99.90;;;;;;1921322;73;25268;-86
2023/06/07 03:37:34;;;;;;;3.43;1.70;;;13.80;99.90;;;;;;1938968;72;27589;-86
2023/06/07 03:40:23;;;;;;;2.80;1.50;;;13.90;99.90;;;;;;1896958;74;25312;-85
2023/06/07 03:43:12;;;;;;;3.57;1.70;;;14.10;99.90;;;;;;1873360;74;25796;-86
2023/06/07 03:46:00;;;;;;;1.50;1.40;;;14.40;99.90;;;;;;1880534;74;25331;-86
2023/06/07 03:48:49;;;;;;;6.33;1.70;;;14.60;99.90;;;;;;1882087;74;25689;-86
2023/06/07 03:51:38;;;;;;;3.50;1.40;;;14.60;99.90;;;;;;1891947;75;25451;-86
2023/06/07 03:54:27;;;;;;;2.50;1.80;;;14.70;99.90;;;;;;1902110;74;25314;-87
2023/06/07 03:57:16;;;;;;;1.70;1.53;;;14.70;99.90;;;;;;1881395;74;25274;-87
2023/06/07 04:02:47;;;;;;;3.67;1.70;;;15.30;99.90;;;;;;1928235;72;26971;-86
2023/06/07 04:05:38;;;;;;;5.27;1.53;;;14.80;99.90;;;;;;1904362;73;25367;-86
2023/06/07 04:08:27;;;;;;;4.83;1.63;;;15.00;99.90;;;;;;1910527;73;25265;-86
2023/06/07 04:11:16;;;;;;;4.73;1.40;;;15.10;99.90;;;;;;1912495;73;25299;-86
2023/06/07 04:14:05;;;;;;;3.43;1.40;;;14.90;99.90;;;;;;1911361;73;25221;-86
2023/06/07 04:16:53;;;;;;;2.07;1.60;;;14.90;99.90;;;;;;1922404;73;25156;-86
2023/06/07 04:22:21;;;;;;;5.53;1.77;;;14.70;99.90;;;;;;1934688;72;27465;-86
2023/06/07 04:25:11;;;;;;;4.17;1.77;;;14.60;99.90;;;;;;1867222;76;25323;-87
2023/06/07 04:28:00;;;;;;;8.00;1.90;;;14.90;99.90;;;;;;1850047;76;25147;-86
2023/06/07 04:30:49;;;;;;;2.37;1.53;;;15.10;99.90;;;;;;1871293;76;25247;-86
2023/06/07 04:33:37;;;;;;;2.23;1.50;;;15.10;99.90;;;;;;1839264;76;25782;-87
2023/06/07 04:36:28;;;;;;;2.77;1.60;;;15.00;99.90;;;;;;1862065;75;25245;-87
2023/06/07 04:42:03;;;;;;;1.67;1.33;;;15.60;99.90;;;;;;1907798;72;28597;-86
2023/06/07 04:44:50;;;;;;;3.23;1.80;;;15.80;99.90;;;;;;1873373;75;25241;-86
2023/06/07 04:47:45;;;;;;;3.60;1.70;;;15.70;99.90;;;;;;1878308;75;25276;-86
2023/06/07 04:50:28;;;;;;;3.33;1.80;;;15.40;99.90;;;;;;1880778;75;25327;-86
2023/06/07 04:53:19;;;;;;;2.87;1.70;;;15.80;99.90;;;;;;1841377;76;25368;-86
2023/06/07 04:56:09;;;;;;;2.20;1.70;;;15.50;99.90;;;;;;1878870;75;25234;-86
2023/06/07 04:58:58;;;;;;;3.73;1.63;;;16.10;99.90;;;;;;1880341;75;25713;-86
2023/06/07 05:04:30;;;;;;;3.17;1.70;;;16.30;99.90;;;;;;1950237;72;27212;-86
2023/06/07 05:07:19;;;;;;;3.93;1.73;;;16.10;99.90;;;;;;1931555;73;25275;-88
2023/06/07 05:10:09;;;;;;;4.77;1.80;;;16.20;99.90;;;;;;1934566;73;25235;-87
2023/06/07 05:12:58;;;;;;;2.83;1.57;;;16.10;99.90;;;;;;1929543;73;25315;-86
2023/06/07 05:15:50;;;;;;;3.73;1.47;;;16.20;99.90;;;;;;1926555;73;25154;-86
2023/06/07 05:18:39;;;;;;;4.13;1.80;;;16.10;99.90;;;;;;1934492;73;25655;-86
2023/06/07 05:21:26;;;;;;;4.00;1.67;;;16.00;99.90;;;;;;1917769;73;26599;-86
2023/06/07 05:24:15;;;;;;;2.47;1.57;;;16.40;99.90;;;;;;1931261;73;25162;-86
2023/06/07 05:27:06;;;;;;;2.90;1.80;;;16.60;99.90;;;;;;1921359;73;25238;-87
2023/06/07 05:32:40;;;;;;;3.37;1.60;;;16.20;99.90;;;;;;1950073;72;27107;-87
2023/06/07 05:35:28;;;;;;;1.83;1.40;;;16.80;99.90;;;;;;1926064;73;25474;-86
2023/06/07 07:04:34;;;;;;;1.87;1.13;;;17.30;99.90;;;;;;1980980;71;26960;-89
2023/06/07 07:07:22;;;;;;;3.67;1.87;;;17.40;99.90;;;;;;1916035;72;25678;-89
2023/06/07 07:10:12;;;;;;;1.73;1.37;;;17.50;99.90;;;;;;1928922;73;25308;-90
2023/06/07 07:13:02;;;;;;;3.50;1.60;;;17.90;99.90;;;;;;1915901;74;25230;-90
2023/06/07 07:15:50;;;;;;;2.57;1.80;;;17.60;99.90;;;;;;1925596;74;25264;-91
2023/06/07 07:18:39;;;;;;;1.77;1.60;;;18.50;99.90;;;;;;1899382;74;25133;-90
2023/06/07 07:21:30;;;;;;;2.43;1.60;;;19.20;99.90;;;;;;1928818;74;25269;-90
2023/06/07 07:24:18;;;;;;;4.03;1.70;;;19.10;99.90;;;;;;1903343;74;25253;-90
2023/06/07 07:27:10;;;;;;;2.57;1.80;;;18.70;99.90;;;;;;1921695;74;25364;-90
2023/06/07 07:29:59;;;;;;;2.13;1.63;;;18.90;99.90;;;;;;1927830;74;25321;-90
2023/06/07 07:32:49;;;;;;;1.73;1.50;;;19.00;99.90;;;;;;1926685;73;25228;-91
2023/06/07 07:35:38;;;;;;;3.97;1.70;;;19.40;99.90;;;;;;1924559;74;25260;-90
2023/06/07 07:38:32;;;;;;;4.33;1.50;;;18.90;99.90;;;;;;1918134;74;25291;-90
2023/06/07 08:02:57;;;;;;;1.50;1.40;;;20.20;99.90;;;;;;1885242;74;26943;-91
2023/06/07 08:05:47;;;;;;;2.03;1.40;;;19.20;99.90;;;;;;1855332;77;25188;-91
2023/06/07 08:08:37;;;;;;;3.73;1.60;;;19.60;99.90;;;;;;1860221;75;25330;-91
2023/06/07 08:11:28;;;;;;;1.33;1.23;;;19.80;99.90;;;;;;1867369;75;25250;-92
2023/06/07 08:14:19;;;;;;;4.67;1.63;;;20.50;99.90;;;;;;1867658;75;25286;-92
2023/06/07 08:17:08;;;;;;;2.90;1.70;;;20.70;99.90;;;;;;1849525;77;25188;-91
2023/06/07 09:49:31;;;;;;;2.70;1.40;;;20.90;99.90;;;;;;1898939;73;27094;-90
2023/06/07 09:52:25;;;;;;;2.63;1.70;;;21.60;99.90;;;;;;1883837;73;25252;-90
2023/06/07 09:55:27;;;;;;;2.50;1.70;;;21.20;99.90;;;;;;1890674;73;25699;-89
2023/06/07 10:01:52;;;;;;;1.97;1.70;;;22.20;99.90;;;;;;1860074;76;25644;-90
2023/06/07 10:05:29;;;;;;;4.37;1.70;;;22.40;99.90;;;;;;1817962;77;25286;-90
2023/06/07 11:12:06;;;;;;;1.60;1.50;;;22.20;99.90;;;;;;1930736;71;26863;-91
2023/06/07 11:18:20;;;;;;;2.50;1.80;;;22.50;99.90;;;;;;1948685;72;26656;-91
2023/06/07 11:21:10;;;;;;;2.43;1.73;;;22.80;99.90;;;;;;1929518;73;25226;-90
2023/06/07 11:24:13;;;;;;;1.73;1.63;;;22.80;99.90;;;;;;1951779;73;25215;-90
2023/06/07 11:27:14;;;;;;;2.87;1.80;;;22.60;99.90;;;;;;1927460;73;25673;-90
2023/06/07 11:44:06;;;;;;;5.73;1.83;;;22.40;99.90;;;;;;1944164;73;26418;-90
2023/06/07 12:17:51;;;;;;;4.17;2.00;;;23.50;99.90;;;;;;1923846;74;26932;-90
2023/06/07 17:04:49;;;;;;;4.30;2.33;;;23.40;99.90;;;;;;1935896;72;27016;-92
2023/06/07 17:07:38;;;;;;;3.33;2.60;;;23.30;99.90;;;;;;1869206;75;25297;-91
2023/06/07 17:10:32;;;;;;;5.30;2.80;;;23.10;99.90;;;;;;1845035;76;25177;-91
2023/06/07 17:13:21;;;;;;;6.00;2.60;;;23.10;99.90;;;;;;1870587;75;25253;-91
2023/06/07 17:16:10;;;;;;;7.70;2.80;;;23.10;99.90;;;;;;1862593;75;25214;-90
2023/06/07 17:18:59;;;;;;;6.97;2.50;;;23.10;99.90;;;;;;1867723;75;25268;-91
2023/06/07 18:05:10;;;;;;;3.93;2.73;;;22.50;99.90;;;;;;1946352;72;27190;-88
2023/06/07 18:07:58;;;;;;;4.53;2.77;;;22.50;99.90;;;;;;1920087;73;25283;-87
2023/06/07 18:29:33;;;;;;;8.73;2.83;;;21.90;99.90;;;;;;1943166;72;27372;-88
2023/06/07 18:32:22;;;;;;;6.40;2.87;;;21.90;99.90;;;;;;1920082;72;25268;-88
2023/06/07 18:35:14;;;;;;;9.43;3.10;;;21.80;99.90;;;;;;1923181;72;25274;-88
2023/06/07 18:40:45;;;;;;;4.47;3.40;;;21.70;99.90;;;;;;1933433;72;27705;-88
2023/06/07 18:46:26;;;;;;;6.80;3.07;;;21.80;99.90;;;;;;1807545;77;64572;-88
2023/06/07 19:05:24;;;;;;;4.13;2.90;;;21.70;99.90;;;;;;1941450;72;27607;-90
2023/06/07 19:08:14;;;;;;;8.50;3.27;;;21.60;99.90;;;;;;1940517;72;25232;-90
2023/06/07 20:09:38;;;;;;;8.57;3.40;;;18.80;99.90;;;;;;1982816;71;29355;-89
2023/06/07 20:12:29;;;;;;;3.77;3.23;;;18.40;99.90;;;;;;1962764;72;25230;-89
2023/06/07 20:15:19;;;;;;;5.77;3.40;;;18.20;99.90;;;;;;1957869;72;25211;-89
2023/06/07 20:18:10;;;;;;;6.73;3.23;;;18.10;99.90;;;;;;1961830;72;25192;-89
2023/06/07 20:20:59;;;;;;;7.27;3.30;;;17.90;99.90;;;;;;1969621;72;25248;-89
2023/06/07 20:23:48;;;;;;;6.33;3.83;;;17.80;99.90;;;;;;1960194;72;25269;-89
2023/06/07 20:44:08;;;;;;;4.87;3.60;;;17.50;99.90;;;;;;1927730;72;27023;-88
2023/06/07 20:46:57;;;;;;;4.57;3.10;;;16.50;99.90;;;;;;1929003;73;25219;-89
2023/06/07 20:52:41;;;;;;;4.57;3.30;;;16.30;99.90;;;;;;1950606;72;26991;-89
2023/06/07 20:58:30;;;;;;;8.13;3.27;;;16.10;99.90;;;;;;1952894;72;26653;-89
2023/06/07 21:28:36;;;;;;;2.97;2.50;;;17.30;99.90;;;;;;1972839;71;27693;-89
2023/06/07 21:31:27;;;;;;;4.67;2.67;;;17.30;99.90;;;;;;1935949;73;25608;-90
2023/06/07 21:34:50;;;;;;;4.63;2.60;;;17.20;99.90;;;;;;1943802;73;25209;-90
2023/06/07 21:37:57;;;;;;;5.30;2.67;;;17.30;99.90;;;;;;1941289;73;25182;-90
2023/06/07 21:40:53;;;;;;;4.90;3.00;;;17.20;99.90;;;;;;1928250;73;25289;-90
2023/06/07 21:44:07;;;;;;;4.23;2.40;;;17.30;99.90;;;;;;1909185;75;26455;-90
2023/06/07 21:51:14;;;;;;;8.93;2.67;;;17.30;99.90;;;;;;1903808;75;25382;-90
2023/06/07 21:58:02;;;;;;;8.40;2.60;;;17.20;99.90;;;;;;1900123;75;25263;-90
2023/06/07 22:18:15;;;;;;;5.60;2.70;;;16.90;99.90;;;;;;1957261;69;27151;-89
2023/06/07 22:53:12;;;;;;;5.97;2.70;;;16.40;99.90;;;;;;2097805;67;26239;-89
2023/06/07 22:56:02;;;;;;;3.80;2.63;;;15.70;99.90;;;;;;2003796;70;25231;-89
2023/06/07 23:02:40;;;;;;;6.00;3.17;;;15.60;99.90;;;;;;2018907;69;26992;-88
2023/06/07 23:05:29;;;;;;;3.43;2.80;;;15.50;99.90;;;;;;1998260;71;25133;-88
2023/06/07 23:08:19;;;;;;;3.40;2.57;;;15.30;99.90;;;;;;1933500;73;25221;-88
2023/06/07 23:11:08;;;;;;;7.00;2.90;;;15.10;99.90;;;;;;1939491;73;25256;-88
2023/06/07 23:13:58;;;;;;;7.30;2.97;;;15.00;99.90;;;;;;1926939;73;25239;-88
2023/06/07 23:16:48;;;;;;;5.00;3.00;;;14.90;99.90;;;;;;1916511;72;25277;-89
2023/06/07 23:19:37;;;;;;;4.47;2.80;;;14.70;99.90;;;;;;1937752;72;25779;-88
2023/06/07 23:22:26;;;;;;;8.90;3.40;;;14.60;99.90;;;;;;1940712;72;25818;-88
2023/06/07 23:25:15;;;;;;;4.50;2.90;;;14.40;99.90;;;;;;1942579;73;25692;-88
2023/06/07 23:28:07;;;;;;;6.97;3.40;;;14.30;99.90;;;;;;1934829;73;25618;-89
2023/06/07 23:30:55;;;;;;;4.97;3.00;;;14.20;99.90;;;;;;1938563;73;25265;-89
2023/06/07 23:33:44;;;;;;;4.30;3.00;;;14.10;99.90;;;;;;1948013;72;25177;-89
2023/06/07 23:36:32;;;;;;;5.60;3.30;;;13.90;99.90;;;;;;1939499;73;25750;-89
2023/06/07 23:39:20;;;;;;;9.23;3.33;;;13.80;99.90;;;;;;1936896;72;25312;-89
2023/06/07 23:42:10;;;;;;;8.53;3.37;;;13.70;99.90;;;;;;1922212;74;25257;-89
2023/06/07 23:45:00;;;;;;;7.40;3.17;;;13.50;99.90;;;;;;1968365;71;25294;-89
2023/06/07 23:47:48;;;;;;;4.17;3.10;;;13.30;99.90;;;;;;1957946;72;25200;-89
2023/06/07 23:50:42;;;;;;;5.53;3.50;;;13.30;99.90;;;;;;1980559;72;25248;-89
